Time;durP1;ratioP1;P1;durP2;ratioP2;P2;SDS_P1;SDS_P2;PMS_P1;PMS_P2;Temp;Humidity;BMP_temperature;BMP_pressure;BME280_temperature;BME280_humidity;BME280_pressure;Samples;Min_cycle;Max_cycle;Signal;HPM_P1;HPM_P2
2023/11/11 00:00:43;;;;;;;9.13;4.70;;;7.30;99.90;;;;;;5011584;28;20465;-72
2023/11/11 00:03:09;;;;;;;6.32;4.00;;;7.30;99.90;;;;;;5012029;28;20799;-72
2023/11/11 00:05:35;;;;;;;3.87;2.70;;;7.30;99.90;;;;;;5012413;28;20389;-73
2023/11/11 00:08:01;;;;;;;5.47;3.50;;;7.20;99.90;;;;;;5013346;28;20442;-73
2023/11/11 00:10:28;;;;;;;6.70;4.10;;;7.20;99.90;;;;;;5013775;28;20809;-72
2023/11/11 00:12:54;;;;;;;5.38;3.60;;;7.40;99.90;;;;;;5012970;28;20459;-72
2023/11/11 00:15:20;;;;;;;3.92;2.90;;;7.40;99.90;;;;;;4994761;28;20420;-73
2023/11/11 00:17:45;;;;;;;5.93;3.50;;;7.30;99.90;;;;;;5011801;28;20414;-73
2023/11/11 00:20:12;;;;;;;4.83;3.40;;;7.20;99.90;;;;;;5011790;28;20381;-73
2023/11/11 00:22:45;;;;;;;6.60;2.70;;;7.30;99.90;;;;;;5012041;28;20524;-71
2023/11/11 00:25:12;;;;;;;3.67;2.33;;;7.40;99.90;;;;;;5013909;28;20440;-72
2023/11/11 00:27:41;;;;;;;2.58;2.13;;;7.30;99.90;;;;;;5014050;28;20393;-72
2023/11/11 00:30:07;;;;;;;3.47;2.40;;;7.40;99.90;;;;;;5015113;28;20401;-75
2023/11/11 00:32:33;;;;;;;6.47;3.60;;;7.30;99.90;;;;;;5013459;28;20389;-73
2023/11/11 00:34:59;;;;;;;9.40;4.30;;;7.30;99.90;;;;;;4989570;28;20449;-73
2023/11/11 00:37:26;;;;;;;7.30;4.00;;;7.40;99.90;;;;;;5011429;28;20392;-73
2023/11/11 00:39:52;;;;;;;7.75;4.38;;;7.30;99.90;;;;;;4994459;28;20381;-74
2023/11/11 00:42:17;;;;;;;6.65;4.32;;;7.40;99.90;;;;;;5011529;28;20763;-72
2023/11/11 00:44:44;;;;;;;7.18;5.10;;;7.30;99.90;;;;;;4994416;28;20442;-73
2023/11/11 00:47:13;;;;;;;10.35;6.05;;;7.40;99.90;;;;;;5011475;28;20392;-74
2023/11/11 00:49:41;;;;;;;14.95;8.15;;;7.50;99.90;;;;;;5011459;28;20440;-73
2023/11/11 00:52:07;;;;;;;11.63;8.00;;;7.50;99.90;;;;;;5011208;28;20392;-72
2023/11/11 00:54:33;;;;;;;17.15;10.48;;;7.40;99.90;;;;;;5011169;28;20436;-72
2023/11/11 00:57:00;;;;;;;14.65;10.60;;;7.50;99.90;;;;;;5011408;28;20415;-72
2023/11/11 00:59:26;;;;;;;17.63;11.77;;;7.50;99.90;;;;;;5010968;28;20389;-72
2023/11/11 01:01:52;;;;;;;21.00;13.23;;;7.60;99.90;;;;;;5011626;28;20381;-72
2023/11/11 01:04:17;;;;;;;22.17;13.75;;;7.60;99.90;;;;;;5011812;28;20393;-72
2023/11/11 01:06:43;;;;;;;22.10;15.50;;;7.60;99.90;;;;;;5012433;28;20887;-71
2023/11/11 01:09:13;;;;;;;29.35;17.88;;;7.70;99.90;;;;;;5012242;28;20424;-73
2023/11/11 01:11:39;;;;;;;30.67;18.42;;;7.80;99.90;;;;;;5011333;28;20487;-72
2023/11/11 01:14:05;;;;;;;30.75;20.60;;;7.70;99.90;;;;;;4993118;28;20512;-71
2023/11/11 01:16:30;;;;;;;35.15;22.30;;;7.80;99.90;;;;;;5010994;28;20468;-73
2023/11/11 01:18:56;;;;;;;33.33;22.85;;;7.80;99.90;;;;;;5010814;28;20447;-73
2023/11/11 01:21:22;;;;;;;40.03;24.60;;;7.90;99.90;;;;;;5010890;28;20386;-72
2023/11/11 01:23:48;;;;;;;37.35;24.58;;;7.90;99.90;;;;;;5011122;28;20392;-75
2023/11/11 01:26:13;;;;;;;37.67;25.80;;;7.90;99.90;;;;;;5011295;28;20748;-71
2023/11/11 01:28:39;;;;;;;41.63;26.97;;;7.90;99.90;;;;;;5013447;28;20405;-71
2023/11/11 01:31:05;;;;;;;40.88;27.10;;;7.90;99.90;;;;;;5015856;28;20413;-73
2023/11/11 01:33:30;;;;;;;44.70;27.58;;;7.90;99.90;;;;;;5015395;28;20412;-74
2023/11/11 01:36:00;;;;;;;43.05;28.73;;;7.90;99.90;;;;;;5015202;28;20472;-73
2023/11/11 01:38:27;;;;;;;44.15;28.83;;;8.00;99.90;;;;;;5015509;28;20797;-72
2023/11/11 01:40:52;;;;;;;48.13;30.10;;;7.90;99.90;;;;;;5014435;28;20384;-72
2023/11/11 01:43:18;;;;;;;42.97;29.67;;;7.90;99.90;;;;;;5014257;28;20396;-70
2023/11/11 01:45:44;;;;;;;41.15;27.88;;;8.00;99.90;;;;;;5014169;28;20468;-71
2023/11/11 01:48:16;;;;;;;47.47;29.23;;;7.90;99.90;;;;;;5013589;28;20883;-71
2023/11/11 01:50:42;;;;;;;44.65;28.10;;;7.80;99.90;;;;;;5013911;28;21001;-73
2023/11/11 01:53:10;;;;;;;45.83;28.40;;;7.70;99.90;;;;;;5014301;28;20409;-71
2023/11/11 01:55:36;;;;;;;41.55;26.80;;;7.70;99.90;;;;;;5014420;28;20851;-71
2023/11/11 01:58:02;;;;;;;42.38;27.45;;;7.70;99.90;;;;;;5014098;28;20743;-72
2023/11/11 02:00:32;;;;;;;42.97;27.08;;;7.60;99.90;;;;;;5013948;28;20392;-73
2023/11/11 02:02:58;;;;;;;42.20;27.17;;;7.60;99.90;;;;;;5013978;28;20396;-72
2023/11/11 02:05:24;;;;;;;41.97;27.63;;;7.50;99.90;;;;;;5014263;28;20491;-73
2023/11/11 02:07:50;;;;;;;46.22;27.63;;;7.50;99.90;;;;;;5013909;28;20871;-73
2023/11/11 02:10:16;;;;;;;46.60;28.23;;;7.40;99.90;;;;;;5013877;28;20397;-72
2023/11/11 02:12:42;;;;;;;42.03;27.85;;;7.30;99.90;;;;;;4996669;28;20412;-72
2023/11/11 02:15:09;;;;;;;40.33;26.50;;;7.40;99.90;;;;;;5014151;28;20385;-72
2023/11/11 02:17:36;;;;;;;38.90;25.80;;;7.40;99.90;;;;;;5014048;28;20873;-73
2023/11/11 02:20:02;;;;;;;43.05;27.17;;;7.30;99.90;;;;;;5014171;28;20859;-72
2023/11/11 02:22:28;;;;;;;45.80;27.70;;;7.30;99.90;;;;;;4999018;28;20389;-73
2023/11/11 02:24:57;;;;;;;45.28;27.05;;;7.30;99.90;;;;;;5015536;28;20384;-73
2023/11/11 02:27:23;;;;;;;35.00;25.70;;;7.40;99.90;;;;;;5015244;28;20400;-73
2023/11/11 02:29:48;;;;;;;37.33;24.80;;;7.40;99.90;;;;;;5015580;28;20381;-73
2023/11/11 02:32:14;;;;;;;39.33;25.08;;;7.40;99.90;;;;;;5017568;28;20414;-71
2023/11/11 02:34:40;;;;;;;37.00;24.05;;;7.40;99.90;;;;;;5017745;28;20451;-74
2023/11/11 02:37:06;;;;;;;38.13;24.88;;;7.30;99.90;;;;;;5021087;28;20395;-74
2023/11/11 02:39:31;;;;;;;39.13;24.17;;;7.20;99.90;;;;;;5018810;28;20396;-74
2023/11/11 02:41:57;;;;;;;38.80;24.30;;;7.20;99.90;;;;;;5015839;28;20392;-73
2023/11/11 02:44:22;;;;;;;37.73;23.77;;;7.30;99.90;;;;;;5013950;28;20397;-72
2023/11/11 02:46:48;;;;;;;35.60;23.37;;;7.20;99.90;;;;;;4996114;28;20396;-73
2023/11/11 02:49:13;;;;;;;37.07;23.77;;;7.20;99.90;;;;;;5013120;28;20401;-73
2023/11/11 02:51:39;;;;;;;38.23;23.77;;;7.10;99.90;;;;;;4995733;28;20405;-72
2023/11/11 02:54:05;;;;;;;35.80;23.20;;;7.20;99.90;;;;;;5013170;28;20612;-72
2023/11/11 02:56:30;;;;;;;35.42;23.80;;;7.10;99.90;;;;;;4995333;28;20479;-72
2023/11/11 02:58:56;;;;;;;39.70;23.63;;;7.00;99.90;;;;;;5012829;28;20381;-71
2023/11/11 03:01:22;;;;;;;36.03;24.17;;;7.00;99.90;;;;;;5012748;28;20752;-73
2023/11/11 03:03:49;;;;;;;33.53;22.60;;;7.10;99.90;;;;;;5012880;28;20393;-72
2023/11/11 03:06:15;;;;;;;37.40;23.10;;;7.10;99.90;;;;;;5012915;28;20452;-73
2023/11/11 03:08:41;;;;;;;33.42;22.45;;;7.00;99.90;;;;;;5012745;28;20388;-71
2023/11/11 03:11:09;;;;;;;36.67;22.63;;;7.00;99.90;;;;;;4995246;28;20480;-72
2023/11/11 03:13:34;;;;;;;35.17;21.90;;;7.00;99.90;;;;;;5012765;28;20396;-72
2023/11/11 03:16:00;;;;;;;35.33;21.60;;;7.10;99.90;;;;;;5012670;28;20400;-73
2023/11/11 03:18:25;;;;;;;32.92;21.15;;;7.10;99.90;;;;;;5012800;28;20388;-72
2023/11/11 03:20:52;;;;;;;35.00;21.88;;;7.10;99.90;;;;;;5012445;28;20389;-71
2023/11/11 03:23:18;;;;;;;30.73;19.90;;;7.30;99.90;;;;;;4994798;28;20404;-74
2023/11/11 03:25:44;;;;;;;34.45;21.27;;;7.30;99.90;;;;;;5012264;28;20385;-71
2023/11/11 03:28:09;;;;;;;27.30;18.83;;;7.40;99.90;;;;;;5012333;28;20392;-71
2023/11/11 03:30:36;;;;;;;29.90;19.50;;;7.50;99.90;;;;;;5012377;28;20830;-72
2023/11/11 03:33:01;;;;;;;32.13;19.55;;;7.40;99.90;;;;;;5012223;28;20404;-71
2023/11/11 03:35:28;;;;;;;26.60;18.13;;;7.40;99.90;;;;;;5012539;28;20747;-71
2023/11/11 03:37:53;;;;;;;27.33;16.98;;;7.50;99.90;;;;;;5012176;28;20464;-70
2023/11/11 03:40:19;;;;;;;27.17;16.80;;;7.50;99.90;;;;;;5011936;28;20931;-72
2023/11/11 03:42:45;;;;;;;22.10;15.23;;;7.50;99.90;;;;;;5012182;28;20898;-71
2023/11/11 03:45:10;;;;;;;22.05;14.30;;;7.60;99.70;;;;;;5011954;28;20404;-72
2023/11/11 03:47:39;;;;;;;23.05;13.95;;;7.60;98.40;;;;;;5012074;28;20384;-71
2023/11/11 03:50:06;;;;;;;22.55;13.85;;;7.60;97.50;;;;;;5036714;22;20441;-74
2023/11/11 03:52:32;;;;;;;20.42;13.32;;;7.60;98.70;;;;;;5052749;28;20382;-74
2023/11/11 03:54:58;;;;;;;19.98;13.93;;;7.70;98.70;;;;;;5051951;28;20454;-74
2023/11/11 03:57:23;;;;;;;20.90;12.67;;;7.70;99.90;;;;;;5051882;28;20381;-73
2023/11/11 03:59:49;;;;;;;22.20;13.37;;;7.60;99.50;;;;;;5050728;28;20396;-74
2023/11/11 04:02:15;;;;;;;21.20;12.75;;;7.60;99.90;;;;;;5052196;28;20381;-74
2023/11/11 04:04:41;;;;;;;20.80;12.52;;;7.60;99.30;;;;;;5052283;28;20385;-73
2023/11/11 04:07:09;;;;;;;19.77;11.98;;;7.60;99.90;;;;;;5052247;28;20392;-73
2023/11/11 04:09:35;;;;;;;20.95;11.43;;;7.60;99.50;;;;;;5051492;28;20884;-74
2023/11/11 04:12:01;;;;;;;14.75;11.55;;;7.70;97.10;;;;;;5051243;28;20385;-74
2023/11/11 04:14:26;;;;;;;17.70;11.33;;;7.70;96.70;;;;;;5051371;28;20471;-75
2023/11/11 04:16:53;;;;;;;19.03;10.60;;;7.60;97.70;;;;;;5051619;28;20393;-75
2023/11/11 04:19:18;;;;;;;15.73;9.85;;;7.60;96.50;;;;;;5051308;28;20391;-74
2023/11/11 04:21:50;;;;;;;12.93;9.10;;;7.60;95.60;;;;;;5051056;28;20374;-73
2023/11/11 04:24:19;;;;;;;18.08;9.80;;;7.50;96.30;;;;;;5051386;28;20392;-73
2023/11/11 04:26:45;;;;;;;15.20;10.13;;;7.50;98.30;;;;;;5051105;28;20442;-75
2023/11/11 04:29:11;;;;;;;21.58;9.73;;;7.50;98.20;;;;;;5051163;28;20688;-75
2023/11/11 04:31:36;;;;;;;17.30;9.30;;;7.50;96.60;;;;;;5051295;28;20415;-75
2023/11/11 04:34:02;;;;;;;12.60;8.57;;;7.60;93.00;;;;;;5050950;28;20412;-75
2023/11/11 04:36:28;;;;;;;14.20;8.13;;;7.60;92.10;;;;;;5050902;28;20389;-75
2023/11/11 04:38:54;;;;;;;15.00;8.20;;;7.60;91.50;;;;;;5051007;28;20400;-75
2023/11/11 04:41:21;;;;;;;13.93;7.40;;;7.60;90.90;;;;;;5051033;28;20390;-75
2023/11/11 04:43:46;;;;;;;13.50;6.90;;;7.60;89.40;;;;;;5050877;28;20389;-75
2023/11/11 04:46:14;;;;;;;19.60;7.10;;;7.60;89.60;;;;;;5050720;28;20894;-75
2023/11/11 04:48:39;;;;;;;9.60;6.95;;;7.60;90.50;;;;;;5050989;28;20385;-75
2023/11/11 04:51:05;;;;;;;10.98;6.13;;;7.60;90.00;;;;;;5050469;28;20898;-75
2023/11/11 04:53:31;;;;;;;9.60;5.97;;;7.60;89.90;;;;;;5050520;28;20409;-75
2023/11/11 04:55:57;;;;;;;11.77;6.00;;;7.60;89.30;;;;;;5050823;28;20465;-75
2023/11/11 04:58:24;;;;;;;9.07;5.20;;;7.60;90.30;;;;;;5050972;28;20496;-74
2023/11/11 05:00:50;;;;;;;10.50;5.00;;;7.60;89.40;;;;;;5050068;28;20461;-74
2023/11/11 05:03:17;;;;;;;7.63;4.80;;;7.70;84.30;;;;;;5049458;28;20477;-74
2023/11/11 05:05:43;;;;;;;6.28;4.20;;;7.70;83.80;;;;;;5050695;28;20800;-75
2023/11/11 05:08:09;;;;;;;10.63;4.40;;;7.70;83.60;;;;;;5051783;28;20389;-75
2023/11/11 05:10:35;;;;;;;9.98;3.83;;;7.70;82.50;;;;;;5051258;28;20385;-74
2023/11/11 05:13:01;;;;;;;8.38;3.60;;;7.80;81.30;;;;;;5050708;28;20413;-75
2023/11/11 05:15:30;;;;;;;7.93;3.65;;;7.80;81.20;;;;;;5050364;28;20412;-75
2023/11/11 05:17:55;;;;;;;7.80;3.47;;;7.80;79.60;;;;;;5049999;28;20406;-74
2023/11/11 05:20:21;;;;;;;10.02;3.20;;;7.70;79.40;;;;;;5050190;28;20420;-74
2023/11/11 05:22:46;;;;;;;5.13;3.13;;;7.70;80.20;;;;;;5049239;28;20389;-75
2023/11/11 05:25:12;;;;;;;4.20;2.90;;;7.70;78.70;;;;;;5051815;28;20888;-75
2023/11/11 05:27:38;;;;;;;5.57;2.70;;;7.80;75.90;;;;;;5050346;28;20880;-75
2023/11/11 05:30:05;;;;;;;7.53;2.80;;;7.70;77.10;;;;;;5050161;28;20887;-75
2023/11/11 05:32:31;;;;;;;9.25;2.85;;;7.80;77.40;;;;;;5050069;28;20389;-75
2023/11/11 05:34:57;;;;;;;7.30;2.33;;;7.80;76.00;;;;;;5050011;28;20869;-75
2023/11/11 05:37:24;;;;;;;5.57;2.60;;;7.80;75.90;;;;;;5050066;28;20389;-75
2023/11/11 05:39:49;;;;;;;5.53;2.17;;;8.10;77.20;;;;;;5048709;28;20503;-75
2023/11/11 05:42:15;;;;;;;5.68;2.10;;;7.80;76.90;;;;;;5048959;28;20747;-75
2023/11/11 05:44:41;;;;;;;3.58;2.13;;;7.80;76.20;;;;;;5049653;28;20389;-75
2023/11/11 05:47:10;;;;;;;4.93;2.38;;;7.80;75.40;;;;;;5049929;28;20488;-76
2023/11/11 05:49:36;;;;;;;5.00;2.38;;;7.80;76.60;;;;;;5049739;28;20400;-76
2023/11/11 05:52:02;;;;;;;1.98;1.70;;;7.80;78.20;;;;;;5051215;28;20800;-74
2023/11/11 05:54:28;;;;;;;9.15;2.40;;;7.80;77.30;;;;;;5051125;28;20596;-74
2023/11/11 05:56:54;;;;;;;5.68;2.70;;;7.80;78.90;;;;;;5051685;28;20382;-75
2023/11/11 05:59:19;;;;;;;6.72;3.20;;;7.80;79.80;;;;;;5055409;28;20419;-74
2023/11/11 06:01:46;;;;;;;12.90;3.67;;;7.80;80.40;;;;;;5053217;28;20903;-73
2023/11/11 06:04:12;;;;;;;6.60;3.40;;;7.80;80.90;;;;;;5051751;28;20432;-75
2023/11/11 06:06:41;;;;;;;7.13;3.97;;;7.80;82.60;;;;;;5050749;28;20422;-74
2023/11/11 06:09:10;;;;;;;11.05;5.63;;;7.90;83.80;;;;;;5048574;28;20390;-75
2023/11/11 06:11:43;;;;;;;11.27;6.23;;;7.90;83.90;;;;;;5049816;28;20393;-74
2023/11/11 06:14:08;;;;;;;10.85;6.68;;;7.90;84.10;;;;;;5050441;28;20492;-75
2023/11/11 06:16:34;;;;;;;14.80;7.68;;;7.90;84.60;;;;;;5053566;28;20392;-75
2023/11/11 06:18:59;;;;;;;17.02;8.50;;;7.80;85.40;;;;;;5052289;28;20883;-74
2023/11/11 06:21:25;;;;;;;17.08;10.27;;;7.80;86.50;;;;;;5053345;28;20752;-75
2023/11/11 06:23:50;;;;;;;19.60;10.93;;;7.80;86.10;;;;;;5053154;28;20921;-75
2023/11/11 06:26:16;;;;;;;19.45;12.50;;;7.70;87.60;;;;;;5053432;28;20458;-74
2023/11/11 06:28:41;;;;;;;22.83;12.48;;;7.60;88.00;;;;;;5053067;28;20728;-74
2023/11/11 06:31:07;;;;;;;20.13;12.60;;;7.50;91.00;;;;;;5053210;28;20386;-74
2023/11/11 06:33:33;;;;;;;22.42;12.60;;;7.40;91.20;;;;;;5053489;28;20511;-74
2023/11/11 06:35:59;;;;;;;21.00;13.52;;;7.40;92.60;;;;;;5053158;28;20409;-74
2023/11/11 06:38:25;;;;;;;24.17;13.75;;;7.20;94.10;;;;;;5053005;28;20388;-74
2023/11/11 06:40:50;;;;;;;24.60;14.00;;;7.20;97.00;;;;;;5053332;28;20385;-75
2023/11/11 06:43:17;;;;;;;20.92;14.10;;;7.10;97.40;;;;;;5053749;28;20382;-74
2023/11/11 06:45:42;;;;;;;24.10;14.07;;;7.20;96.70;;;;;;5054090;28;20763;-74
2023/11/11 06:48:08;;;;;;;24.10;13.63;;;7.20;95.30;;;;;;5053501;28;20381;-76
2023/11/11 06:50:34;;;;;;;24.10;13.53;;;7.20;95.80;;;;;;5053092;28;20405;-75
2023/11/11 06:53:00;;;;;;;21.90;13.38;;;7.20;93.70;;;;;;5052950;28;20405;-74
2023/11/11 06:55:29;;;;;;;23.37;13.60;;;7.20;93.40;;;;;;5052704;28;20378;-75
2023/11/11 06:57:54;;;;;;;23.07;12.43;;;7.20;93.70;;;;;;5052839;28;20396;-73
2023/11/11 07:00:20;;;;;;;22.50;12.40;;;7.20;91.90;;;;;;5053058;28;20377;-76
2023/11/11 07:02:47;;;;;;;24.45;12.57;;;7.10;91.90;;;;;;5052958;28;20380;-75
2023/11/11 07:05:13;;;;;;;17.52;10.35;;;7.10;91.00;;;;;;5053055;28;20377;-75
2023/11/11 07:07:40;;;;;;;18.90;11.40;;;7.10;92.20;;;;;;5052759;28;20394;-75
2023/11/11 07:10:07;;;;;;;22.88;11.35;;;7.10;90.60;;;;;;5052666;28;20748;-74
2023/11/11 07:12:33;;;;;;;20.70;11.50;;;7.20;90.90;;;;;;5053164;28;20393;-76
2023/11/11 07:14:59;;;;;;;17.20;10.98;;;7.30;88.60;;;;;;5053003;28;20389;-73
2023/11/11 07:17:25;;;;;;;17.97;10.37;;;7.30;88.40;;;;;;5052866;28;20751;-74
2023/11/11 07:19:50;;;;;;;14.63;10.25;;;7.30;85.60;;;;;;5053417;28;20775;-74
2023/11/11 07:22:18;;;;;;;20.17;9.50;;;7.30;85.00;;;;;;5053303;28;20381;-75
2023/11/11 07:24:45;;;;;;;14.40;10.20;;;7.40;83.40;;;;;;5053488;28;20411;-75
2023/11/11 07:27:11;;;;;;;18.13;10.25;;;7.30;83.20;;;;;;5051397;28;20385;-75
2023/11/11 07:29:36;;;;;;;22.73;10.50;;;7.30;81.40;;;;;;5051988;28;20423;-74
2023/11/11 07:32:02;;;;;;;21.05;9.75;;;7.20;84.80;;;;;;5050768;28;20756;-74
2023/11/11 07:34:28;;;;;;;16.45;10.00;;;7.20;84.90;;;;;;5052046;28;20817;-75
2023/11/11 07:36:53;;;;;;;20.70;10.43;;;7.20;84.30;;;;;;5052435;28;20386;-74
2023/11/11 07:39:19;;;;;;;19.52;11.18;;;7.30;82.40;;;;;;5051752;28;20417;-74
2023/11/11 07:41:45;;;;;;;19.35;10.95;;;7.30;81.90;;;;;;5051870;28;20874;-74
2023/11/11 07:44:11;;;;;;;21.83;11.00;;;7.40;81.40;;;;;;5051581;28;20390;-74
2023/11/11 07:46:37;;;;;;;18.92;12.27;;;7.40;80.30;;;;;;5051744;28;20393;-75
2023/11/11 07:49:05;;;;;;;18.25;11.98;;;7.40;78.10;;;;;;5051635;28;20408;-74
2023/11/11 07:51:32;;;;;;;21.15;12.50;;;7.40;79.30;;;;;;5051510;28;20504;-74
2023/11/11 07:53:58;;;;;;;18.90;11.80;;;7.30;80.00;;;;;;5052790;28;20557;-74
2023/11/11 07:56:24;;;;;;;23.50;12.40;;;7.30;79.30;;;;;;5052092;28;20386;-75
2023/11/11 07:58:53;;;;;;;21.80;13.45;;;7.30;81.30;;;;;;5051708;28;20386;-74
2023/11/11 08:01:21;;;;;;;23.20;12.80;;;7.30;80.20;;;;;;5051972;28;20480;-75
2023/11/11 08:03:47;;;;;;;21.60;13.02;;;7.30;80.20;;;;;;5051424;28;20443;-74
2023/11/11 08:06:12;;;;;;;24.58;14.30;;;7.30;80.80;;;;;;5051516;28;20397;-74
2023/11/11 08:08:38;;;;;;;19.80;12.80;;;7.40;81.30;;;;;;5051201;28;20476;-74
2023/11/11 08:11:08;;;;;;;20.30;13.20;;;7.60;77.70;;;;;;5051083;28;20377;-74
2023/11/11 08:13:34;;;;;;;22.88;13.20;;;7.70;75.80;;;;;;5051449;28;20434;-74
2023/11/11 08:15:59;;;;;;;21.00;12.53;;;7.80;72.20;;;;;;5051240;28;20487;-73
2023/11/11 08:18:25;;;;;;;21.87;13.00;;;7.90;70.40;;;;;;5051434;28;20476;-74
2023/11/11 08:20:50;;;;;;;23.70;12.93;;;8.00;72.40;;;;;;5050729;28;20389;-73
2023/11/11 08:23:16;;;;;;;24.20;13.30;;;8.10;72.20;;;;;;5051619;28;20389;-71
2023/11/11 08:25:41;;;;;;;20.47;12.60;;;8.20;69.90;;;;;;5054040;28;20393;-72
2023/11/11 08:28:07;;;;;;;21.63;12.87;;;8.20;68.30;;;;;;5056289;28;20501;-71
2023/11/11 08:30:33;;;;;;;28.13;13.20;;;8.30;68.40;;;;;;5051979;28;20405;-72
2023/11/11 08:33:01;;;;;;;20.33;12.57;;;8.30;67.50;;;;;;5051719;28;20878;-72
2023/11/11 08:35:27;;;;;;;19.70;13.10;;;8.30;68.80;;;;;;5052484;28;20514;-74
2023/11/11 08:37:52;;;;;;;21.03;12.40;;;8.30;67.00;;;;;;5051740;28;20483;-72
2023/11/11 08:40:18;;;;;;;19.83;12.30;;;8.40;66.10;;;;;;5051961;28;20392;-72
2023/11/11 08:42:45;;;;;;;24.80;12.90;;;8.50;63.60;;;;;;5052611;28;20377;-73
2023/11/11 08:45:11;;;;;;;23.58;12.90;;;8.50;64.40;;;;;;5051680;28;20377;-73
2023/11/11 08:47:37;;;;;;;23.15;12.82;;;8.50;65.80;;;;;;5050464;28;20386;-72
2023/11/11 08:50:06;;;;;;;22.13;11.67;;;8.60;64.60;;;;;;5049761;28;20465;-72
2023/11/11 08:52:33;;;;;;;21.30;12.80;;;8.70;62.20;;;;;;5051530;28;20385;-73
2023/11/11 08:54:59;;;;;;;23.17;11.88;;;8.80;61.80;;;;;;5051061;28;21014;-72
2023/11/11 08:57:25;;;;;;;20.65;10.52;;;8.80;61.30;;;;;;5050974;28;20472;-73
2023/11/11 08:59:51;;;;;;;22.58;12.00;;;8.90;61.10;;;;;;5051679;28;20478;-72
2023/11/11 09:02:17;;;;;;;19.85;11.60;;;9.00;59.30;;;;;;5051182;28;20385;-73
2023/11/11 09:04:43;;;;;;;22.93;12.40;;;9.00;57.90;;;;;;5042570;28;20391;-72
2023/11/11 09:07:08;;;;;;;24.33;12.75;;;9.00;57.90;;;;;;5063526;28;20399;-73
2023/11/11 09:09:34;;;;;;;24.88;11.27;;;8.90;60.30;;;;;;5072516;28;20383;-73
2023/11/11 09:12:01;;;;;;;16.85;10.60;;;9.00;57.30;;;;;;5074980;28;20388;-72
2023/11/11 09:14:29;;;;;;;21.80;10.90;;;8.90;57.90;;;;;;5073810;28;20400;-72
2023/11/11 09:16:56;;;;;;;21.15;11.10;;;9.00;58.40;;;;;;5073619;28;20456;-73
2023/11/11 09:19:22;;;;;;;23.33;10.05;;;9.00;58.00;;;;;;5061249;28;20397;-73
2023/11/11 09:21:48;;;;;;;22.27;11.57;;;9.20;57.20;;;;;;5051750;28;20381;-72
2023/11/11 09:24:13;;;;;;;27.30;11.90;;;9.40;56.80;;;;;;5051053;28;20446;-72
2023/11/11 09:26:41;;;;;;;19.10;10.37;;;9.60;55.80;;;;;;5051507;28;20874;-72
2023/11/11 09:29:07;;;;;;;21.38;11.40;;;9.80;52.40;;;;;;5051359;28;20381;-71
2023/11/11 09:31:32;;;;;;;23.73;10.43;;;9.90;52.50;;;;;;5050615;28;20500;-72
2023/11/11 09:34:01;;;;;;;21.33;10.20;;;9.90;52.90;;;;;;5050713;28;20463;-73
2023/11/11 09:36:28;;;;;;;17.13;9.70;;;9.70;52.10;;;;;;5050458;28;20414;-73
2023/11/11 09:38:53;;;;;;;23.98;10.57;;;9.40;53.50;;;;;;5050299;28;20389;-73
2023/11/11 09:41:20;;;;;;;21.65;11.10;;;9.40;56.30;;;;;;5050425;28;20465;-72
2023/11/11 09:43:46;;;;;;;22.38;9.70;;;9.40;57.70;;;;;;5050515;28;20749;-73
2023/11/11 09:46:15;;;;;;;21.48;10.93;;;9.40;56.10;;;;;;5050849;28;20525;-73
2023/11/11 09:48:44;;;;;;;25.88;11.40;;;9.40;55.10;;;;;;5050606;28;20385;-72
2023/11/11 09:51:10;;;;;;;29.37;10.20;;;9.40;56.30;;;;;;5078274;22;20442;-72
2023/11/11 09:53:38;;;;;;;19.90;10.50;;;9.40;56.20;;;;;;5073094;28;20411;-72
2023/11/11 09:56:05;;;;;;;17.63;9.85;;;9.40;56.00;;;;;;5072866;28;20437;-71
2023/11/11 09:58:33;;;;;;;20.95;9.70;;;9.60;55.30;;;;;;5073116;28;20458;-72
2023/11/11 10:00:58;;;;;;;14.63;8.95;;;9.60;53.40;;;;;;5085411;28;20422;-72
2023/11/11 10:03:24;;;;;;;22.48;10.45;;;9.70;53.70;;;;;;5093504;28;20414;-72
2023/11/11 10:05:50;;;;;;;21.17;8.97;;;9.90;51.80;;;;;;5092924;28;20474;-72
2023/11/11 10:08:15;;;;;;;17.30;9.30;;;9.90;51.90;;;;;;5093234;28;20442;-72
2023/11/11 10:10:42;;;;;;;17.03;9.23;;;10.00;51.20;;;;;;5093365;28;20899;-72
2023/11/11 10:13:07;;;;;;;24.08;8.90;;;10.20;50.10;;;;;;5078594;28;20407;-74
2023/11/11 10:15:33;;;;;;;16.70;8.90;;;10.20;48.70;;;;;;5076285;28;21028;-72
2023/11/11 10:18:00;;;;;;;19.92;8.30;;;10.30;48.10;;;;;;5091471;28;20389;-71
2023/11/11 10:20:30;;;;;;;19.70;8.85;;;10.40;48.40;;;;;;5094542;28;20385;-73
2023/11/11 10:22:56;;;;;;;18.02;8.15;;;10.60;48.90;;;;;;5091602;28;20400;-74
2023/11/11 10:25:22;;;;;;;17.48;8.35;;;10.80;45.00;;;;;;5081899;28;20436;-72
2023/11/11 10:27:49;;;;;;;18.07;8.20;;;10.90;44.90;;;;;;5088160;28;20887;-72
2023/11/11 10:30:25;;;;;;;17.85;8.23;;;11.00;44.90;;;;;;5092975;28;20469;-71
2023/11/11 10:32:52;;;;;;;19.35;7.13;;;11.00;43.10;;;;;;5088319;28;20413;-71
2023/11/11 10:35:18;;;;;;;23.58;8.70;;;10.80;43.90;;;;;;5064783;28;20386;-71
2023/11/11 10:37:46;;;;;;;22.27;7.97;;;10.70;45.10;;;;;;5092566;28;20747;-74
2023/11/11 10:40:16;;;;;;;17.92;7.95;;;10.70;44.90;;;;;;5092622;28;20943;-73
2023/11/11 10:42:46;;;;;;;15.98;7.57;;;10.70;46.30;;;;;;5087310;28;20754;-72
2023/11/11 10:45:14;;;;;;;18.15;7.25;;;10.50;45.30;;;;;;5090751;28;20421;-74
2023/11/11 10:47:40;;;;;;;14.00;6.85;;;10.50;45.90;;;;;;5075111;28;20392;-73
2023/11/11 10:50:07;;;;;;;12.43;6.93;;;10.60;45.40;;;;;;5072159;28;20391;-73
2023/11/11 10:52:37;;;;;;;18.33;7.72;;;10.60;44.00;;;;;;5072889;28;20384;-73
2023/11/11 10:55:25;;;;;;;19.55;7.28;;;10.70;45.90;;;;;;5070335;28;20838;-73
2023/11/11 10:57:51;;;;;;;18.48;7.20;;;10.80;44.10;;;;;;5071991;28;20393;-73
2023/11/11 11:00:20;;;;;;;16.77;7.75;;;10.80;43.50;;;;;;5072221;28;20476;-73
2023/11/11 11:02:48;;;;;;;21.20;8.00;;;10.80;43.30;;;;;;5072444;28;20376;-73
2023/11/11 11:05:28;;;;;;;15.43;7.20;;;10.90;42.80;;;;;;5072107;28;20402;-74
2023/11/11 11:08:06;;;;;;;13.38;6.90;;;11.00;40.90;;;;;;5053564;28;20384;-73
2023/11/11 11:10:39;;;;;;;20.05;7.88;;;11.10;42.50;;;;;;5071989;28;20376;-72
2023/11/11 11:13:10;;;;;;;12.52;6.70;;;11.10;41.00;;;;;;5071734;28;20440;-74
2023/11/11 11:15:40;;;;;;;18.13;6.63;;;11.00;40.70;;;;;;5073809;28;20380;-74
2023/11/11 11:18:10;;;;;;;15.48;6.10;;;10.80;41.90;;;;;;5074486;28;20441;-73
2023/11/11 11:20:37;;;;;;;13.82;6.03;;;11.00;42.80;;;;;;5086501;28;20397;-73
2023/11/11 11:23:04;;;;;;;15.40;5.80;;;11.20;41.20;;;;;;5090425;28;20406;-74
2023/11/11 11:25:33;;;;;;;11.52;5.93;;;11.60;40.60;;;;;;5089575;28;20392;-73
2023/11/11 11:28:11;;;;;;;16.90;6.20;;;11.70;37.60;;;;;;5089466;28;20390;-74
2023/11/11 11:30:58;;;;;;;13.23;6.10;;;11.60;38.70;;;;;;5083034;28;20398;-71
2023/11/11 11:33:26;;;;;;;13.73;6.18;;;11.70;39.90;;;;;;5072805;28;20889;-74
2023/11/11 11:35:56;;;;;;;16.73;6.10;;;11.60;38.30;;;;;;5077710;28;20402;-72
2023/11/11 11:38:26;;;;;;;15.52;6.15;;;11.40;39.00;;;;;;5078648;28;20400;-72
2023/11/11 11:40:55;;;;;;;16.77;6.63;;;11.40;39.30;;;;;;5091344;28;20374;-72
2023/11/11 11:43:30;;;;;;;18.15;6.82;;;11.40;39.10;;;;;;5091575;28;20377;-73
2023/11/11 11:46:00;;;;;;;11.60;5.80;;;11.40;40.20;;;;;;5092445;28;20382;-73
2023/11/11 11:48:27;;;;;;;15.30;6.10;;;11.20;39.20;;;;;;5073358;28;20401;-73
2023/11/11 11:51:14;;;;;;;11.82;5.30;;;11.20;39.60;;;;;;5091518;28;20393;-72
2023/11/11 11:53:42;;;;;;;8.82;4.45;;;11.10;39.60;;;;;;5091629;28;20403;-73
2023/11/11 11:56:29;;;;;;;14.05;4.90;;;10.90;39.30;;;;;;5089701;28;20457;-73
2023/11/11 11:58:55;;;;;;;11.20;5.10;;;10.90;39.60;;;;;;5057080;28;20393;-72
2023/11/11 12:01:27;;;;;;;11.88;4.63;;;11.00;39.70;;;;;;5091868;28;20496;-72
2023/11/11 12:03:54;;;;;;;14.02;4.43;;;11.10;39.70;;;;;;5091438;28;20374;-72
2023/11/11 12:06:23;;;;;;;16.25;4.85;;;11.30;38.90;;;;;;5091594;28;20420;-73
2023/11/11 12:08:52;;;;;;;11.18;4.30;;;11.30;38.10;;;;;;5092233;28;20740;-73
2023/11/11 12:11:31;;;;;;;14.00;4.07;;;11.30;38.30;;;;;;5091754;28;20821;-75
2023/11/11 12:14:03;;;;;;;10.43;4.30;;;11.20;37.90;;;;;;5091967;28;20488;-72
2023/11/11 12:16:39;;;;;;;11.15;4.57;;;11.30;38.00;;;;;;5091480;28;20394;-72
2023/11/11 12:19:09;;;;;;;13.93;4.07;;;11.40;37.40;;;;;;5090771;28;20464;-74
2023/11/11 12:21:36;;;;;;;12.13;4.18;;;11.30;37.10;;;;;;5072678;28;20887;-72
2023/11/11 12:24:02;;;;;;;9.23;4.00;;;11.20;37.80;;;;;;5091110;28;20393;-73
2023/11/11 12:26:29;;;;;;;7.57;3.40;;;11.40;38.00;;;;;;5091804;28;20413;-74
2023/11/11 12:28:56;;;;;;;12.95;4.10;;;11.30;37.10;;;;;;5090559;28;20390;-73
2023/11/11 12:31:21;;;;;;;9.05;4.05;;;11.20;38.30;;;;;;5073200;28;20465;-73
2023/11/11 12:33:48;;;;;;;10.90;4.17;;;11.40;37.90;;;;;;5092085;28;20498;-73
2023/11/11 12:36:14;;;;;;;6.72;3.28;;;11.40;37.60;;;;;;5091037;28;20421;-74
2023/11/11 12:38:40;;;;;;;10.32;3.65;;;11.40;36.00;;;;;;5072480;28;20393;-73